Ponte Preta, Brazil
Current Conditions -  °F | °C
As of 1:00 AM on Friday 31 Oct 2014 (Local Time) from SBCH Reporting Station
Moderate Fog Moderate Fog  
Wind Chill: 63°   Ceiling: Unl
Heat Index: 63°   Visibility: 6mi
Dew Point: 63°   Wind: 3mph
Humidity: 100%   Direction: 90°E
Pressure: 29.85"   Gusts: NA
Location:  27.65°S, 52.49°W
Report Text: SBCH 310300Z 09003KT 9000 VCFG FEW002 17/17 Q1011
Loading
Personal Weather Stations






























Interactive Weather Map
Tropical Storm Tracking
New forecast layout! Learn more

10-Day Weather Forecast

Advertisements
Track Severe Weather on mobile